This is the latest recevied weather packets stored in our database for station/object SA7AHC. If no packets are shown the sender has not sent any weather packets the latest 10 day(s).
| Time | Temp. | Humidity | Pressure | Rain* | Wind** | Luminosity | Snow |
|---|---|---|---|---|---|---|---|
| 1778170248 | 13.89° C | 40% | 1017.5 hPa | 0 mm | - | 374 W/m² | - |
| 1778169640 | 15.56° C | 36% | 1017.4 hPa | 0 mm | - | 225 W/m² | - |
| 1778169037 | 16.67° C | 33% | 1017.3 hPa | 0 mm | - | 165 W/m² | - |
| 1778168435 | 16.67° C | 32% | 1017.3 hPa | 0 mm | - | 504 W/m² | - |
| 1778167832 | 16.11° C | 30% | 1017.3 hPa | 0 mm | - | 526 W/m² | - |
| 1778167231 | 15.56° C | 33% | 1017.4 hPa | 0 mm | - | 545 W/m² | - |
| 1778166641 | 14.44° C | 35% | 1017.3 hPa | 0 mm | - | 197 W/m² | - |
| 1778166029 | 15.56° C | 32% | 1017.2 hPa | 0 mm | - | 114 W/m² | - |
| 1778165409 | 16.11° C | 36% | 1017.2 hPa | 0 mm | - | 496 W/m² | - |
| 1778164807 | 16.11° C | 30% | 1017.2 hPa | 0 mm | - | 626 W/m² | - |
| 1778164207 | 17.22° C | 33% | 1017.3 hPa | 0 mm | - | 612 W/m² | - |
| 1778163602 | 16.11° C | 37% | 1017.4 hPa | 0 mm | - | 109 W/m² | - |
| 1778163003 | 16.67° C | 35% | 1017.4 hPa | 0 mm | - | 628 W/m² | - |
| 1778162406 | 14.44° C | 35% | 1017.3 hPa | 0 mm | - | 221 W/m² | - |
| 1778161796 | 13.89° C | 35% | 1017 hPa | 0 mm | - | 105 W/m² | - |
| 1778161187 | 15.56° C | 35% | 1017.1 hPa | 0 mm | - | 144 W/m² | - |
| 1778160579 | 15.56° C | 37% | 1017.2 hPa | 0 mm | - | 722 W/m² | - |
| 1778159975 | 13.89° C | 33% | 1017 hPa | 0 mm | - | 128 W/m² | - |
| 1778159375 | 15° C | 36% | 1017 hPa | 0 mm | - | 153 W/m² | - |
| 1778158775 | 15° C | 35% | 1017.1 hPa | 0 mm | - | 190 W/m² | - |
| 1778158175 | 14.44° C | 32% | 1016.9 hPa | 0 mm | - | 192 W/m² | - |
| 1778157579 | 15° C | 35% | 1017 hPa | 0 mm | - | 846 W/m² | - |
| 1778156976 | 15.56° C | 35% | 1017 hPa | 0 mm | - | 826 W/m² | - |
| 1778156377 | 14.44° C | 35% | 1017 hPa | 0 mm | - | 814 W/m² | - |
| 1778155777 | 13.33° C | 41% | 1016.9 hPa | 0 mm | - | 276 W/m² | - |
* Rain latest hour (hover to see other rain measurements)
** Current wind speed in m/s (hover to see current wind gust speed)